sensor_id;sensor_type;location;lat;lon;timestamp;pressure;altitude;pressure_sealevel;temperature;humidity
12666;BME280;58531;59.050;17.416;2023-06-14T00:02:02;101515.78;;;9.90;100.00
12666;BME280;58531;59.050;17.416;2023-06-14T00:04:30;101516.94;;;9.89;100.00
12666;BME280;58531;59.050;17.416;2023-06-14T00:06:56;101516.53;;;9.90;100.00
12666;BME280;58531;59.050;17.416;2023-06-14T00:09:23;101523.91;;;9.83;100.00
12666;BME280;58531;59.050;17.416;2023-06-14T00:11:52;101521.75;;;9.74;100.00
12666;BME280;58531;59.050;17.416;2023-06-14T00:14:18;101516.06;;;9.72;100.00
12666;BME280;58531;59.050;17.416;2023-06-14T00:16:45;101516.06;;;9.72;100.00
12666;BME280;58531;59.050;17.416;2023-06-14T00:19:13;101514.56;;;9.71;100.00
12666;BME280;58531;59.050;17.416;2023-06-14T00:21:41;101512.38;;;9.66;100.00
12666;BME280;58531;59.050;17.416;2023-06-14T00:24:08;101518.50;;;9.63;100.00
12666;BME280;58531;59.050;17.416;2023-06-14T00:26:35;101521.19;;;9.63;100.00
12666;BME280;58531;59.050;17.416;2023-06-14T00:29:03;101516.31;;;9.58;100.00
12666;BME280;58531;59.050;17.416;2023-06-14T00:31:30;101517.06;;;9.59;100.00
12666;BME280;58531;59.050;17.416;2023-06-14T00:33:57;101514.78;;;9.57;100.00
12666;BME280;58531;59.050;17.416;2023-06-14T00:36:24;101516.38;;;9.55;100.00
12666;BME280;58531;59.050;17.416;2023-06-14T00:38:51;101515.91;;;9.60;100.00
12666;BME280;58531;59.050;17.416;2023-06-14T00:41:18;101517.88;;;9.56;100.00
12666;BME280;58531;59.050;17.416;2023-06-14T00:43:45;101531.94;;;9.56;100.00
12666;BME280;58531;59.050;17.416;2023-06-14T00:46:13;101531.59;;;9.54;100.00
12666;BME280;58531;59.050;17.416;2023-06-14T00:48:40;101527.06;;;9.51;100.00
12666;BME280;58531;59.050;17.416;2023-06-14T00:51:07;101532.50;;;9.44;100.00
12666;BME280;58531;59.050;17.416;2023-06-14T00:53:34;101520.81;;;9.38;100.00
12666;BME280;58531;59.050;17.416;2023-06-14T00:56:02;101521.28;;;9.34;100.00
12666;BME280;58531;59.050;17.416;2023-06-14T00:58:29;101524.28;;;9.36;100.00
12666;BME280;58531;59.050;17.416;2023-06-14T01:00:57;101533.03;;;9.36;100.00
12666;BME280;58531;59.050;17.416;2023-06-14T01:03:25;101521.22;;;9.37;100.00
12666;BME280;58531;59.050;17.416;2023-06-14T01:05:58;101525.84;;;9.33;100.00
12666;BME280;58531;59.050;17.416;2023-06-14T01:08:36;101528.22;;;9.28;100.00
12666;BME280;58531;59.050;17.416;2023-06-14T01:11:12;101529.84;;;9.22;100.00
12666;BME280;58531;59.050;17.416;2023-06-14T01:13:44;101524.16;;;9.20;100.00
12666;BME280;58531;59.050;17.416;2023-06-14T01:16:12;101531.34;;;9.23;100.00
12666;BME280;58531;59.050;17.416;2023-06-14T01:18:43;101524.50;;;9.22;100.00
12666;BME280;58531;59.050;17.416;2023-06-14T01:21:20;101532.13;;;9.20;100.00
12666;BME280;58531;59.050;17.416;2023-06-14T01:23:49;101535.50;;;9.24;100.00
12666;BME280;58531;59.050;17.416;2023-06-14T01:26:18;101528.25;;;9.24;100.00
12666;BME280;58531;59.050;17.416;2023-06-14T01:28:46;101521.84;;;9.22;100.00
12666;BME280;58531;59.050;17.416;2023-06-14T01:31:17;101529.88;;;9.18;100.00
12666;BME280;58531;59.050;17.416;2023-06-14T01:33:47;101533.75;;;9.14;100.00
12666;BME280;58531;59.050;17.416;2023-06-14T01:36:15;101531.88;;;9.11;100.00
12666;BME280;58531;59.050;17.416;2023-06-14T01:38:44;101525.00;;;9.13;100.00
12666;BME280;58531;59.050;17.416;2023-06-14T01:41:13;101527.72;;;9.10;100.00
12666;BME280;58531;59.050;17.416;2023-06-14T01:43:41;101516.75;;;9.04;100.00
12666;BME280;58531;59.050;17.416;2023-06-14T01:46:09;101522.47;;;9.03;100.00
12666;BME280;58531;59.050;17.416;2023-06-14T01:48:37;101518.66;;;9.04;100.00
12666;BME280;58531;59.050;17.416;2023-06-14T01:51:04;101520.06;;;9.12;100.00
12666;BME280;58531;59.050;17.416;2023-06-14T01:53:31;101516.16;;;9.20;100.00
12666;BME280;58531;59.050;17.416;2023-06-14T01:55:58;101521.03;;;9.25;100.00
12666;BME280;58531;59.050;17.416;2023-06-14T01:58:26;101519.06;;;9.29;100.00
12666;BME280;58531;59.050;17.416;2023-06-14T02:00:54;101516.31;;;9.36;100.00
12666;BME280;58531;59.050;17.416;2023-06-14T02:03:22;101515.44;;;9.42;100.00
12666;BME280;58531;59.050;17.416;2023-06-14T02:05:50;101512.69;;;9.45;100.00
12666;BME280;58531;59.050;17.416;2023-06-14T02:08:17;101507.72;;;9.47;100.00
12666;BME280;58531;59.050;17.416;2023-06-14T02:10:44;101505.84;;;9.44;100.00
12666;BME280;58531;59.050;17.416;2023-06-14T02:13:11;101497.53;;;9.42;100.00
12666;BME280;58531;59.050;17.416;2023-06-14T02:15:39;101502.88;;;9.42;100.00
12666;BME280;58531;59.050;17.416;2023-06-14T02:18:09;101513.13;;;9.44;100.00
12666;BME280;58531;59.050;17.416;2023-06-14T02:20:36;101513.53;;;9.42;100.00
12666;BME280;58531;59.050;17.416;2023-06-14T02:23:03;101512.03;;;9.41;100.00
12666;BME280;58531;59.050;17.416;2023-06-14T02:25:30;101516.19;;;9.42;100.00
12666;BME280;58531;59.050;17.416;2023-06-14T02:27:57;101511.25;;;9.41;100.00
12666;BME280;58531;59.050;17.416;2023-06-14T02:30:24;101515.88;;;9.37;100.00
12666;BME280;58531;59.050;17.416;2023-06-14T02:32:52;101510.63;;;9.34;100.00
12666;BME280;58531;59.050;17.416;2023-06-14T02:35:19;101514.84;;;9.31;100.00
12666;BME280;58531;59.050;17.416;2023-06-14T02:37:50;101514.44;;;9.33;100.00
12666;BME280;58531;59.050;17.416;2023-06-14T02:40:17;101526.19;;;9.35;100.00
12666;BME280;58531;59.050;17.416;2023-06-14T02:42:44;101521.84;;;9.44;100.00
12666;BME280;58531;59.050;17.416;2023-06-14T02:45:11;101528.44;;;9.63;100.00
12666;BME280;58531;59.050;17.416;2023-06-14T02:47:38;101527.22;;;9.90;100.00
12666;BME280;58531;59.050;17.416;2023-06-14T02:50:08;101530.78;;;10.46;100.00
12666;BME280;58531;59.050;17.416;2023-06-14T02:52:35;101539.09;;;11.38;100.00
12666;BME280;58531;59.050;17.416;2023-06-14T02:55:04;101540.13;;;11.76;93.21
12666;BME280;58531;59.050;17.416;2023-06-14T02:57:33;101536.38;;;12.01;89.74
12666;BME280;58531;59.050;17.416;2023-06-14T02:59:59;101532.16;;;12.45;88.98
12666;BME280;58531;59.050;17.416;2023-06-14T03:02:26;101537.97;;;12.97;85.71
12666;BME280;58531;59.050;17.416;2023-06-14T03:04:53;101535.50;;;13.27;82.17
12666;BME280;58531;59.050;17.416;2023-06-14T03:07:22;101539.34;;;13.38;80.48
12666;BME280;58531;59.050;17.416;2023-06-14T03:09:51;101533.94;;;13.63;79.36
12666;BME280;58531;59.050;17.416;2023-06-14T03:12:17;101536.03;;;13.47;78.38
12666;BME280;58531;59.050;17.416;2023-06-14T03:14:44;101544.50;;;13.45;78.63
12666;BME280;58531;59.050;17.416;2023-06-14T03:17:12;101539.28;;;14.43;74.78
12666;BME280;58531;59.050;17.416;2023-06-14T03:19:39;101544.59;;;15.74;68.77
12666;BME280;58531;59.050;17.416;2023-06-14T03:22:06;101543.66;;;16.66;65.10
12666;BME280;58531;59.050;17.416;2023-06-14T03:24:35;101547.31;;;17.84;60.85
12666;BME280;58531;59.050;17.416;2023-06-14T03:27:03;101542.63;;;19.23;56.13
12666;BME280;58531;59.050;17.416;2023-06-14T03:29:30;101554.69;;;20.42;51.39
12666;BME280;58531;59.050;17.416;2023-06-14T03:31:58;101554.56;;;21.18;48.82
12666;BME280;58531;59.050;17.416;2023-06-14T03:34:25;101545.72;;;21.70;46.64
12666;BME280;58531;59.050;17.416;2023-06-14T03:36:52;101546.28;;;21.38;46.27
12666;BME280;58531;59.050;17.416;2023-06-14T03:39:19;101554.31;;;19.69;49.96
12666;BME280;58531;59.050;17.416;2023-06-14T03:41:47;101554.34;;;19.01;52.82
12666;BME280;58531;59.050;17.416;2023-06-14T03:44:16;101551.75;;;18.34;55.30
12666;BME280;58531;59.050;17.416;2023-06-14T03:46:44;101546.41;;;17.87;57.96
12666;BME280;58531;59.050;17.416;2023-06-14T03:49:11;101552.09;;;17.66;58.48
12666;BME280;58531;59.050;17.416;2023-06-14T03:51:38;101551.47;;;17.47;59.59
12666;BME280;58531;59.050;17.416;2023-06-14T03:54:06;101561.00;;;18.04;59.30
12666;BME280;58531;59.050;17.416;2023-06-14T03:56:33;101560.03;;;19.51;55.24
12666;BME280;58531;59.050;17.416;2023-06-14T03:59:01;101565.91;;;21.17;51.32
12666;BME280;58531;59.050;17.416;2023-06-14T04:01:28;101564.00;;;22.83;46.61
12666;BME280;58531;59.050;17.416;2023-06-14T04:03:57;101563.31;;;24.29;42.97
12666;BME280;58531;59.050;17.416;2023-06-14T04:06:24;101567.66;;;25.36;41.06
12666;BME280;58531;59.050;17.416;2023-06-14T04:08:57;101565.00;;;25.92;39.57
12666;BME280;58531;59.050;17.416;2023-06-14T04:11:30;101572.75;;;26.43;38.28
12666;BME280;58531;59.050;17.416;2023-06-14T04:13:58;101569.22;;;27.05;36.28
12666;BME280;58531;59.050;17.416;2023-06-14T04:16:26;101566.44;;;27.50;35.25
12666;BME280;58531;59.050;17.416;2023-06-14T04:18:54;101568.63;;;27.77;34.07
12666;BME280;58531;59.050;17.416;2023-06-14T04:21:23;101569.53;;;28.26;32.73
12666;BME280;58531;59.050;17.416;2023-06-14T04:23:51;101576.63;;;28.75;32.11
12666;BME280;58531;59.050;17.416;2023-06-14T04:26:20;101577.09;;;28.87;32.20
12666;BME280;58531;59.050;17.416;2023-06-14T04:28:49;101582.00;;;29.01;31.56
12666;BME280;58531;59.050;17.416;2023-06-14T04:31:16;101574.72;;;28.29;33.35
12666;BME280;58531;59.050;17.416;2023-06-14T04:33:45;101582.78;;;29.72;31.53
12666;BME280;58531;59.050;17.416;2023-06-14T04:36:13;101580.41;;;30.49;29.77
12666;BME280;58531;59.050;17.416;2023-06-14T04:38:43;101579.34;;;31.19;28.84
12666;BME280;58531;59.050;17.416;2023-06-14T04:41:11;101586.97;;;31.65;28.22
12666;BME280;58531;59.050;17.416;2023-06-14T04:43:38;101581.63;;;31.99;26.67
12666;BME280;58531;59.050;17.416;2023-06-14T04:46:05;101582.84;;;31.12;27.77
12666;BME280;58531;59.050;17.416;2023-06-14T04:48:35;101580.00;;;31.49;27.03
12666;BME280;58531;59.050;17.416;2023-06-14T04:51:03;101580.00;;;31.96;26.50
12666;BME280;58531;59.050;17.416;2023-06-14T04:53:31;101591.09;;;32.53;24.63
12666;BME280;58531;59.050;17.416;2023-06-14T04:55:57;101587.16;;;31.99;24.61
12666;BME280;58531;59.050;17.416;2023-06-14T04:58:26;101591.56;;;32.10;25.43
12666;BME280;58531;59.050;17.416;2023-06-14T05:00:53;101583.31;;;31.41;27.25
12666;BME280;58531;59.050;17.416;2023-06-14T05:03:21;101587.38;;;32.58;25.67
12666;BME280;58531;59.050;17.416;2023-06-14T05:05:49;101587.22;;;32.80;25.74
12666;BME280;58531;59.050;17.416;2023-06-14T05:08:17;101581.63;;;31.99;26.44
12666;BME280;58531;59.050;17.416;2023-06-14T05:10:44;101580.50;;;31.70;27.00
12666;BME280;58531;59.050;17.416;2023-06-14T05:13:11;101584.19;;;32.12;26.57
12666;BME280;58531;59.050;17.416;2023-06-14T05:15:37;101584.38;;;31.67;27.08
12666;BME280;58531;59.050;17.416;2023-06-14T05:18:04;101586.03;;;33.07;25.11
12666;BME280;58531;59.050;17.416;2023-06-14T05:20:35;101586.16;;;33.34;24.53
12666;BME280;58531;59.050;17.416;2023-06-14T05:23:02;101591.50;;;32.74;24.45
12666;BME280;58531;59.050;17.416;2023-06-14T05:25:30;101594.22;;;34.00;22.94
12666;BME280;58531;59.050;17.416;2023-06-14T05:27:57;101591.84;;;34.13;22.38
12666;BME280;58531;59.050;17.416;2023-06-14T05:30:24;101585.72;;;33.20;23.83
12666;BME280;58531;59.050;17.416;2023-06-14T05:32:51;101586.88;;;33.68;23.48
12666;BME280;58531;59.050;17.416;2023-06-14T05:35:20;101588.41;;;33.62;24.42
12666;BME280;58531;59.050;17.416;2023-06-14T05:37:48;101598.84;;;34.40;23.27
12666;BME280;58531;59.050;17.416;2023-06-14T05:40:15;101588.75;;;33.66;23.65
12666;BME280;58531;59.050;17.416;2023-06-14T05:42:45;101594.81;;;34.60;22.60
12666;BME280;58531;59.050;17.416;2023-06-14T05:45:12;101591.09;;;34.12;23.24
12666;BME280;58531;59.050;17.416;2023-06-14T05:47:40;101591.09;;;34.39;23.13
12666;BME280;58531;59.050;17.416;2023-06-14T05:50:08;101597.53;;;34.77;22.53
12666;BME280;58531;59.050;17.416;2023-06-14T05:52:35;101593.78;;;33.60;24.27
12666;BME280;58531;59.050;17.416;2023-06-14T05:55:02;101598.84;;;33.71;24.14
12666;BME280;58531;59.050;17.416;2023-06-14T05:57:29;101600.50;;;33.23;24.99
12666;BME280;58531;59.050;17.416;2023-06-14T05:59:57;101595.44;;;34.32;22.79
12666;BME280;58531;59.050;17.416;2023-06-14T06:02:24;101598.72;;;33.95;23.35
12666;BME280;58531;59.050;17.416;2023-06-14T06:04:51;101596.22;;;33.56;23.55
12666;BME280;58531;59.050;17.416;2023-06-14T06:07:17;101600.34;;;33.98;24.31
12666;BME280;58531;59.050;17.416;2023-06-14T06:09:44;101596.22;;;34.78;22.65
12666;BME280;58531;59.050;17.416;2023-06-14T06:12:11;101601.53;;;34.21;23.66
12666;BME280;58531;59.050;17.416;2023-06-14T06:14:38;101610.72;;;35.05;22.51
12666;BME280;58531;59.050;17.416;2023-06-14T06:17:06;101613.44;;;35.41;21.81
12666;BME280;58531;59.050;17.416;2023-06-14T06:19:33;101620.59;;;35.16;22.41
12666;BME280;58531;59.050;17.416;2023-06-14T06:22:00;101613.25;;;34.65;22.48
12666;BME280;58531;59.050;17.416;2023-06-14T06:24:27;101610.84;;;36.21;20.48
12666;BME280;58531;59.050;17.416;2023-06-14T06:26:54;101622.97;;;37.37;19.20
12666;BME280;58531;59.050;17.416;2023-06-14T06:29:20;101618.63;;;36.13;20.93
12666;BME280;58531;59.050;17.416;2023-06-14T06:31:47;101624.84;;;35.64;21.03
12666;BME280;58531;59.050;17.416;2023-06-14T06:34:15;101622.34;;;36.46;20.77
12666;BME280;58531;59.050;17.416;2023-06-14T06:36:42;101620.34;;;34.85;21.71
12666;BME280;58531;59.050;17.416;2023-06-14T06:39:09;101627.59;;;35.35;20.86
12666;BME280;58531;59.050;17.416;2023-06-14T06:41:37;101616.47;;;33.66;21.69
12666;BME280;58531;59.050;17.416;2023-06-14T06:44:05;101622.31;;;33.87;22.07
12666;BME280;58531;59.050;17.416;2023-06-14T06:46:32;101623.28;;;34.97;20.05
12666;BME280;58531;59.050;17.416;2023-06-14T06:48:59;101622.97;;;36.35;18.93
12666;BME280;58531;59.050;17.416;2023-06-14T06:51:27;101619.06;;;36.00;17.53
12666;BME280;58531;59.050;17.416;2023-06-14T06:53:54;101614.22;;;36.89;17.32
12666;BME280;58531;59.050;17.416;2023-06-14T06:56:21;101619.66;;;36.17;17.13
12666;BME280;58531;59.050;17.416;2023-06-14T06:58:48;101620.47;;;37.20;16.80
12666;BME280;58531;59.050;17.416;2023-06-14T07:01:15;101619.31;;;37.35;15.17
12666;BME280;58531;59.050;17.416;2023-06-14T07:03:42;101613.09;;;36.43;13.91
12666;BME280;58531;59.050;17.416;2023-06-14T07:06:09;101619.94;;;36.12;13.46
12666;BME280;58531;59.050;17.416;2023-06-14T07:08:38;101615.94;;;34.82;14.52
12666;BME280;58531;59.050;17.416;2023-06-14T07:11:06;101611.25;;;36.27;14.33
12666;BME280;58531;59.050;17.416;2023-06-14T07:13:33;101619.59;;;35.58;13.43
12666;BME280;58531;59.050;17.416;2023-06-14T07:16:00;101618.22;;;35.50;13.37
12666;BME280;58531;59.050;17.416;2023-06-14T07:18:27;101610.47;;;35.20;13.51
12666;BME280;58531;59.050;17.416;2023-06-14T07:20:55;101620.44;;;35.61;13.78
12666;BME280;58531;59.050;17.416;2023-06-14T07:23:22;101621.19;;;35.61;14.50
12666;BME280;58531;59.050;17.416;2023-06-14T07:25:51;101623.38;;;35.82;13.44
12666;BME280;58531;59.050;17.416;2023-06-14T07:28:17;101630.97;;;35.72;13.94
12666;BME280;58531;59.050;17.416;2023-06-14T07:30:44;101621.50;;;36.34;14.20
12666;BME280;58531;59.050;17.416;2023-06-14T07:33:11;101637.13;;;35.61;13.41
12666;BME280;58531;59.050;17.416;2023-06-14T07:35:38;101632.44;;;35.35;14.60
12666;BME280;58531;59.050;17.416;2023-06-14T07:38:05;101626.00;;;35.42;12.78
12666;BME280;58531;59.050;17.416;2023-06-14T07:40:32;101631.69;;;35.25;12.82
12666;BME280;58531;59.050;17.416;2023-06-14T07:43:00;101621.16;;;35.80;12.08
12666;BME280;58531;59.050;17.416;2023-06-14T07:45:27;101623.00;;;34.04;13.41
12666;BME280;58531;59.050;17.416;2023-06-14T07:47:54;101629.13;;;34.91;13.43
12666;BME280;58531;59.050;17.416;2023-06-14T07:50:22;101622.78;;;34.72;13.36
12666;BME280;58531;59.050;17.416;2023-06-14T07:52:49;101620.16;;;34.47;14.43
12666;BME280;58531;59.050;17.416;2023-06-14T07:55:16;101621.38;;;36.22;13.41
12666;BME280;58531;59.050;17.416;2023-06-14T07:57:42;101620.75;;;35.65;13.28
12666;BME280;58531;59.050;17.416;2023-06-14T08:00:12;101622.72;;;36.61;12.98
12666;BME280;58531;59.050;17.416;2023-06-14T08:02:41;101622.03;;;35.17;14.34
12666;BME280;58531;59.050;17.416;2023-06-14T08:05:09;101624.59;;;35.05;14.78
12666;BME280;58531;59.050;17.416;2023-06-14T08:07:36;101622.69;;;34.00;14.67
12666;BME280;58531;59.050;17.416;2023-06-14T08:10:04;101616.03;;;32.45;15.51
12666;BME280;58531;59.050;17.416;2023-06-14T08:12:30;101615.16;;;32.03;15.69
12666;BME280;58531;59.050;17.416;2023-06-14T08:14:57;101615.19;;;32.67;17.11
12666;BME280;58531;59.050;17.416;2023-06-14T08:17:26;101612.66;;;31.21;17.65
12666;BME280;58531;59.050;17.416;2023-06-14T08:19:53;101620.66;;;29.79;19.42
12666;BME280;58531;59.050;17.416;2023-06-14T08:22:22;101618.91;;;30.04;19.83
12666;BME280;58531;59.050;17.416;2023-06-14T08:24:50;101623.00;;;30.18;19.78
12666;BME280;58531;59.050;17.416;2023-06-14T08:27:19;101614.16;;;30.05;20.19
12666;BME280;58531;59.050;17.416;2023-06-14T08:29:46;101616.25;;;29.91;19.25
12666;BME280;58531;59.050;17.416;2023-06-14T08:32:13;101621.88;;;30.14;18.71
12666;BME280;58531;59.050;17.416;2023-06-14T08:34:41;101621.59;;;29.89;18.80
12666;BME280;58531;59.050;17.416;2023-06-14T08:37:08;101616.03;;;29.18;19.75
12666;BME280;58531;59.050;17.416;2023-06-14T08:39:35;101612.38;;;28.96;19.44
12666;BME280;58531;59.050;17.416;2023-06-14T08:42:02;101620.28;;;29.19;18.67
12666;BME280;58531;59.050;17.416;2023-06-14T08:44:29;101613.84;;;28.97;18.59
12666;BME280;58531;59.050;17.416;2023-06-14T08:46:56;101617.13;;;28.75;19.28
12666;BME280;58531;59.050;17.416;2023-06-14T08:49:25;101618.34;;;28.87;18.43
12666;BME280;58531;59.050;17.416;2023-06-14T08:51:56;101618.41;;;29.14;18.46
12666;BME280;58531;59.050;17.416;2023-06-14T08:54:25;101612.16;;;28.73;18.52
12666;BME280;58531;59.050;17.416;2023-06-14T08:56:53;101612.72;;;28.72;19.20
12666;BME280;58531;59.050;17.416;2023-06-14T08:59:24;101611.09;;;28.76;19.19
12666;BME280;58531;59.050;17.416;2023-06-14T09:01:51;101613.03;;;28.48;19.90
12666;BME280;58531;59.050;17.416;2023-06-14T09:04:20;101616.06;;;28.24;22.29
12666;BME280;58531;59.050;17.416;2023-06-14T09:06:47;101608.25;;;28.15;20.78
12666;BME280;58531;59.050;17.416;2023-06-14T09:09:21;101613.16;;;27.96;20.72
12666;BME280;58531;59.050;17.416;2023-06-14T09:11:49;101612.09;;;27.99;21.08
12666;BME280;58531;59.050;17.416;2023-06-14T09:14:17;101606.81;;;28.01;20.86
12666;BME280;58531;59.050;17.416;2023-06-14T09:16:44;101608.84;;;27.23;21.41
12666;BME280;58531;59.050;17.416;2023-06-14T09:19:14;101605.16;;;26.89;21.29
12666;BME280;58531;59.050;17.416;2023-06-14T09:21:47;101603.97;;;26.84;21.89
12666;BME280;58531;59.050;17.416;2023-06-14T09:24:14;101594.88;;;27.08;21.13
12666;BME280;58531;59.050;17.416;2023-06-14T09:26:43;101598.41;;;27.60;22.61
12666;BME280;58531;59.050;17.416;2023-06-14T09:29:10;101605.13;;;27.85;20.34
12666;BME280;58531;59.050;17.416;2023-06-14T09:31:37;101600.28;;;28.24;21.68
12666;BME280;58531;59.050;17.416;2023-06-14T09:34:04;101601.66;;;28.31;21.28
12666;BME280;58531;59.050;17.416;2023-06-14T09:36:32;101593.00;;;28.81;20.66
12666;BME280;58531;59.050;17.416;2023-06-14T09:39:01;101589.50;;;28.60;21.10
12666;BME280;58531;59.050;17.416;2023-06-14T09:41:31;101589.88;;;28.10;20.36
12666;BME280;58531;59.050;17.416;2023-06-14T09:44:01;101588.66;;;27.98;22.96
12666;BME280;58531;59.050;17.416;2023-06-14T09:46:29;101588.44;;;27.96;21.89
12666;BME280;58531;59.050;17.416;2023-06-14T09:48:57;101587.16;;;27.97;20.95
12666;BME280;58531;59.050;17.416;2023-06-14T09:51:24;101591.63;;;28.20;21.61
12666;BME280;58531;59.050;17.416;2023-06-14T09:53:52;101590.16;;;28.32;21.30
12666;BME280;58531;59.050;17.416;2023-06-14T09:56:23;101583.53;;;28.28;21.84
12666;BME280;58531;59.050;17.416;2023-06-14T09:58:55;101584.59;;;28.66;21.36
12666;BME280;58531;59.050;17.416;2023-06-14T10:01:24;101582.44;;;28.31;21.34
12666;BME280;58531;59.050;17.416;2023-06-14T10:03:55;101589.34;;;27.78;21.23
12666;BME280;58531;59.050;17.416;2023-06-14T10:06:24;101580.88;;;28.09;21.39
12666;BME280;58531;59.050;17.416;2023-06-14T10:08:52;101567.31;;;28.24;21.17
12666;BME280;58531;59.050;17.416;2023-06-14T10:11:22;101574.78;;;28.37;20.64
12666;BME280;58531;59.050;17.416;2023-06-14T10:13:50;101578.59;;;28.34;20.97
12666;BME280;58531;59.050;17.416;2023-06-14T10:16:22;101572.91;;;28.32;21.96
12666;BME280;58531;59.050;17.416;2023-06-14T10:19:02;101577.41;;;29.03;22.09
12666;BME280;58531;59.050;17.416;2023-06-14T10:21:37;101579.63;;;29.33;21.07
12666;BME280;58531;59.050;17.416;2023-06-14T10:24:13;101575.16;;;29.22;20.77
12666;BME280;58531;59.050;17.416;2023-06-14T10:26:50;101571.25;;;29.18;20.09
12666;BME280;58531;59.050;17.416;2023-06-14T10:29:17;101561.81;;;28.58;21.43
12666;BME280;58531;59.050;17.416;2023-06-14T10:31:45;101562.25;;;28.28;21.29
12666;BME280;58531;59.050;17.416;2023-06-14T10:34:21;101556.09;;;28.76;21.16
12666;BME280;58531;59.050;17.416;2023-06-14T10:37:00;101561.34;;;29.15;21.15
12666;BME280;58531;59.050;17.416;2023-06-14T10:39:28;101555.28;;;29.44;20.24
12666;BME280;58531;59.050;17.416;2023-06-14T10:41:56;101557.00;;;29.55;21.14
12666;BME280;58531;59.050;17.416;2023-06-14T10:44:49;101546.38;;;30.02;19.79
12666;BME280;58531;59.050;17.416;2023-06-14T10:47:29;101549.81;;;29.95;19.66
12666;BME280;58531;59.050;17.416;2023-06-14T10:50:04;101556.09;;;30.03;20.39
12666;BME280;58531;59.050;17.416;2023-06-14T10:52:33;101550.47;;;29.73;20.96
12666;BME280;58531;59.050;17.416;2023-06-14T10:55:04;101555.84;;;29.93;20.17
12666;BME280;58531;59.050;17.416;2023-06-14T10:57:32;101548.19;;;29.99;20.24
12666;BME280;58531;59.050;17.416;2023-06-14T10:59:59;101547.88;;;30.25;20.18
12666;BME280;58531;59.050;17.416;2023-06-14T11:05:55;101545.50;;;30.36;20.17
12666;BME280;58531;59.050;17.416;2023-06-14T11:08:45;101527.69;;;30.67;18.76
12666;BME280;58531;59.050;17.416;2023-06-14T11:11:18;101538.50;;;30.43;20.01
12666;BME280;58531;59.050;17.416;2023-06-14T11:13:48;101536.25;;;30.04;19.12
12666;BME280;58531;59.050;17.416;2023-06-14T11:16:18;101534.00;;;29.88;19.74
12666;BME280;58531;59.050;17.416;2023-06-14T11:18:45;101539.09;;;29.76;20.08
12666;BME280;58531;59.050;17.416;2023-06-14T11:21:17;101535.72;;;29.55;20.26
12666;BME280;58531;59.050;17.416;2023-06-14T11:23:49;101529.56;;;29.92;19.90
12666;BME280;58531;59.050;17.416;2023-06-14T11:26:24;101527.09;;;30.09;19.55
12666;BME280;58531;59.050;17.416;2023-06-14T11:28:55;101531.69;;;30.22;19.63
12666;BME280;58531;59.050;17.416;2023-06-14T11:31:22;101538.84;;;30.24;19.96
12666;BME280;58531;59.050;17.416;2023-06-14T11:33:50;101531.41;;;29.82;19.84
12666;BME280;58531;59.050;17.416;2023-06-14T11:36:18;101532.16;;;29.90;19.94
12666;BME280;58531;59.050;17.416;2023-06-14T11:38:45;101524.75;;;29.70;20.15
12666;BME280;58531;59.050;17.416;2023-06-14T11:41:12;101523.91;;;29.47;20.56
12666;BME280;58531;59.050;17.416;2023-06-14T11:43:40;101521.81;;;29.33;20.27
12666;BME280;58531;59.050;17.416;2023-06-14T11:46:12;101525.88;;;29.39;20.77
12666;BME280;58531;59.050;17.416;2023-06-14T11:48:41;101521.03;;;29.60;20.79
12666;BME280;58531;59.050;17.416;2023-06-14T11:51:08;101519.25;;;29.70;20.59
12666;BME280;58531;59.050;17.416;2023-06-14T11:53:38;101509.94;;;29.96;19.91
12666;BME280;58531;59.050;17.416;2023-06-14T11:56:05;101512.59;;;30.68;19.85
12666;BME280;58531;59.050;17.416;2023-06-14T11:58:32;101506.00;;;30.79;19.61
12666;BME280;58531;59.050;17.416;2023-06-14T12:00:59;101517.19;;;30.51;20.21
12666;BME280;58531;59.050;17.416;2023-06-14T12:03:28;101510.75;;;30.41;19.99
12666;BME280;58531;59.050;17.416;2023-06-14T12:06:03;101508.56;;;30.62;19.47
12666;BME280;58531;59.050;17.416;2023-06-14T12:08:34;101510.59;;;30.84;19.94
12666;BME280;58531;59.050;17.416;2023-06-14T12:11:06;101510.94;;;30.28;20.25
12666;BME280;58531;59.050;17.416;2023-06-14T12:13:37;101508.25;;;29.85;20.19
12666;BME280;58531;59.050;17.416;2023-06-14T12:16:06;101504.28;;;30.01;20.09
12666;BME280;58531;59.050;17.416;2023-06-14T12:18:34;101499.72;;;30.11;20.50
12666;BME280;58531;59.050;17.416;2023-06-14T12:21:03;101505.50;;;29.85;21.31
12666;BME280;58531;59.050;17.416;2023-06-14T12:23:45;101514.13;;;29.82;24.49
12666;BME280;58531;59.050;17.416;2023-06-14T12:26:14;101512.53;;;29.43;21.46
12666;BME280;58531;59.050;17.416;2023-06-14T12:28:42;101513.81;;;29.42;22.40
12666;BME280;58531;59.050;17.416;2023-06-14T12:31:10;101513.69;;;29.55;22.66
12666;BME280;58531;59.050;17.416;2023-06-14T12:33:37;101514.97;;;29.54;22.47
12666;BME280;58531;59.050;17.416;2023-06-14T12:36:05;101515.03;;;29.69;21.94
12666;BME280;58531;59.050;17.416;2023-06-14T12:38:33;101508.16;;;29.48;22.56
12666;BME280;58531;59.050;17.416;2023-06-14T12:41:00;101519.06;;;29.68;21.89
12666;BME280;58531;59.050;17.416;2023-06-14T12:43:28;101519.41;;;29.29;22.70
12666;BME280;58531;59.050;17.416;2023-06-14T12:45:55;101505.34;;;28.57;23.88
12666;BME280;58531;59.050;17.416;2023-06-14T12:48:22;101503.88;;;28.35;23.32
12666;BME280;58531;59.050;17.416;2023-06-14T12:50:49;101503.53;;;28.39;24.89